createdAt,value
2019-04-23T00:01:38.114Z,17.90
2019-04-23T00:04:07.157Z,17.80
2019-04-23T00:06:32.230Z,17.80
2019-04-23T00:09:15.521Z,17.80
2019-04-23T00:11:41.508Z,17.70
2019-04-23T00:14:15.179Z,17.70
2019-04-23T00:16:44.116Z,17.60
2019-04-23T00:19:10.320Z,17.60
2019-04-23T00:21:56.919Z,17.50
2019-04-23T00:25:12.156Z,17.60
2019-04-23T00:27:29.159Z,17.50
2019-04-23T00:29:53.037Z,17.50
2019-04-23T00:32:25.182Z,17.50
2019-04-23T00:34:57.962Z,17.50
2019-04-23T00:37:25.733Z,17.40
2019-04-23T00:39:52.324Z,17.40
2019-04-23T00:44:58.654Z,17.40
2019-04-23T00:47:25.544Z,17.30
2019-04-23T00:50:07.811Z,17.30
2019-04-23T00:52:26.579Z,17.30
2019-04-23T00:55:07.137Z,17.30
2019-04-23T00:57:34.325Z,17.30
2019-04-23T01:00:03.448Z,17.20
2019-04-23T01:02:33.503Z,17.20
2019-04-23T01:05:06.827Z,17.20
2019-04-23T01:07:31.764Z,17.20
2019-04-23T01:10:13.979Z,17.20
2019-04-23T01:12:46.959Z,17.20
2019-04-23T01:15:24.215Z,17.10
2019-04-23T01:17:49.303Z,17.10
2019-04-23T01:20:28.420Z,17.10
2019-04-23T01:22:36.303Z,17.10
2019-04-23T01:25:24.763Z,17.00
2019-04-23T01:28:25.333Z,17.00
2019-04-23T01:30:55.324Z,17.00
2019-04-23T01:33:29.628Z,16.90
2019-04-23T01:38:27.973Z,16.90
2019-04-23T01:40:55.474Z,16.90
2019-04-23T01:43:28.871Z,16.90
2019-04-23T01:45:54.483Z,16.80
2019-04-23T01:48:30.073Z,16.80
2019-04-23T01:51:06.360Z,16.70
2019-04-23T01:53:34.808Z,16.70
2019-04-23T01:56:01.356Z,16.70
2019-04-23T01:58:40.263Z,16.70
2019-04-23T02:03:38.400Z,16.60
2019-04-23T02:08:32.221Z,16.60
2019-04-23T02:11:02.831Z,16.60
2019-04-23T02:13:40.443Z,16.50
2019-04-23T02:16:06.723Z,16.50
2019-04-23T02:18:35.660Z,16.50
2019-04-23T02:21:10.533Z,16.40
2019-04-23T02:23:57.285Z,16.50
2019-04-23T02:26:23.363Z,16.40
2019-04-23T02:28:56.220Z,16.40
2019-04-23T02:36:29.223Z,16.40
2019-04-23T02:41:35.239Z,16.30
2019-04-23T02:44:07.020Z,16.30
2019-04-23T02:46:54.101Z,16.20
2019-04-23T02:49:12.632Z,16.20
2019-04-23T02:56:37.921Z,16.20
2019-04-23T02:59:10.276Z,16.10
2019-04-23T03:04:10.348Z,16.20
2019-04-23T03:06:58.459Z,16.10
2019-04-23T03:09:29.727Z,16.10
2019-04-23T03:11:41.668Z,16.10
2019-04-23T03:14:09.435Z,16.10
2019-04-23T03:17:19.424Z,16.10
2019-04-23T03:27:22.922Z,16.00
2019-04-23T03:29:55.300Z,16.00
2019-04-23T03:42:23.900Z,15.80
2019-04-23T03:47:34.897Z,15.80
2019-04-23T03:54:48.667Z,15.80
2019-04-23T04:00:03.404Z,15.80
2019-04-23T04:02:39.870Z,15.80
2019-04-23T04:05:17.880Z,15.80
2019-04-23T04:08:05.045Z,15.80
2019-04-23T04:09:59.418Z,15.80
2019-04-23T04:12:39.879Z,15.90
2019-04-23T04:15:24.912Z,15.80
2019-04-23T04:17:40.196Z,15.90
2019-04-23T04:20:15.303Z,15.80
2019-04-23T04:22:50.043Z,15.90
2019-04-23T04:25:14.508Z,15.90
2019-04-23T04:27:53.879Z,15.90
2019-04-23T04:30:10.569Z,15.90
2019-04-23T04:32:47.397Z,15.90
2019-04-23T04:43:02.212Z,16.00
2019-04-23T04:45:30.486Z,16.00
2019-04-23T04:50:31.305Z,16.00
2019-04-23T04:55:27.772Z,16.00
2019-04-23T04:57:56.669Z,16.00
2019-04-23T05:07:58.262Z,16.30
2019-04-23T05:10:38.550Z,16.40
2019-04-23T05:13:11.831Z,16.50
2019-04-23T05:15:23.771Z,16.50
2019-04-23T05:23:18.028Z,16.60
2019-04-23T05:25:38.132Z,16.80
2019-04-23T05:30:46.087Z,16.90
2019-04-23T05:43:12.689Z,16.90
2019-04-23T05:45:41.254Z,16.90
2019-04-23T05:48:17.505Z,17.00
2019-04-23T05:50:57.811Z,17.00
2019-04-23T05:53:23.037Z,17.10
2019-04-23T05:55:51.735Z,17.20
2019-04-23T05:58:23.267Z,17.20
2019-04-23T06:01:00.827Z,17.30
2019-04-23T06:03:22.884Z,17.40
2019-04-23T06:06:08.174Z,17.40
2019-04-23T06:11:01.893Z,17.50
2019-04-23T06:13:26.424Z,17.60
2019-04-23T06:15:58.159Z,17.60
2019-04-23T06:18:36.892Z,17.50
2019-04-23T06:21:07.405Z,17.60
2019-04-23T06:23:38.171Z,17.60
2019-04-23T06:28:31.623Z,17.70
2019-04-23T06:33:41.309Z,18.10
2019-04-23T06:36:05.883Z,18.30
2019-04-23T06:38:46.181Z,18.20
2019-04-23T06:41:08.618Z,18.30
2019-04-23T06:43:49.979Z,18.50
2019-04-23T06:46:24.381Z,18.60
2019-04-23T06:48:47.620Z,18.80
2019-04-23T06:51:27.191Z,19.00
2019-04-23T06:53:45.070Z,19.40
2019-04-23T06:56:26.878Z,19.90
2019-04-23T06:58:51.193Z,20.50
2019-04-23T07:01:17.628Z,20.70
2019-04-23T07:03:57.047Z,20.70
2019-04-23T07:06:38.324Z,20.70
2019-04-23T07:09:12.146Z,20.90
2019-04-23T07:11:27.096Z,21.00
2019-04-23T07:16:31.467Z,21.10
2019-04-23T07:18:59.149Z,21.10
2019-04-23T07:29:00.447Z,20.70
2019-04-23T07:34:02.491Z,20.70
2019-04-23T07:36:37.331Z,20.80
2019-04-23T07:39:11.627Z,21.20
2019-04-23T07:44:54.480Z,21.70
2019-04-23T07:50:14.045Z,21.30
2019-04-23T07:52:33.463Z,21.10
2019-04-23T07:55:02.299Z,21.00
2019-04-23T07:57:26.854Z,20.80
2019-04-23T08:00:00.792Z,20.90
2019-04-23T08:02:31.464Z,21.00
2019-04-23T08:05:11.675Z,21.20
2019-04-23T08:07:36.820Z,21.70
2019-04-23T08:10:01.989Z,22.30
2019-04-23T08:12:49.302Z,22.60
2019-04-23T08:15:13.341Z,22.80
2019-04-23T08:17:34.676Z,22.80
2019-04-23T08:20:07.373Z,22.90
2019-04-23T08:22:44.197Z,23.00
2019-04-23T08:25:26.572Z,23.30
2019-04-23T08:28:05.919Z,24.10
2019-04-23T08:30:32.352Z,25.40
2019-04-23T08:33:04.620Z,26.70
2019-04-23T08:35:36.166Z,27.60
2019-04-23T08:40:33.569Z,28.20
2019-04-23T08:43:34.853Z,28.20
2019-04-23T08:45:59.559Z,28.10
2019-04-23T08:48:32.817Z,27.20
2019-04-23T08:51:31.492Z,26.20
2019-04-23T08:56:08.982Z,24.30
2019-04-23T09:01:10.713Z,23.20
2019-04-23T09:08:37.485Z,23.00
2019-04-23T09:11:19.452Z,23.10
2019-04-23T09:16:15.720Z,23.40
2019-04-23T09:18:37.282Z,23.50
2019-04-23T09:23:46.832Z,23.80
2019-04-23T09:26:08.294Z,23.90
2019-04-23T09:31:45.678Z,24.00
2019-04-23T09:34:07.515Z,24.10
2019-04-23T09:36:53.641Z,24.20
2019-04-23T09:39:32.718Z,24.20
2019-04-23T09:42:29.599Z,24.30
2019-04-23T09:45:03.690Z,24.40
2019-04-23T09:50:44.459Z,24.70
2019-04-23T09:53:18.840Z,24.80
2019-04-23T09:55:41.698Z,24.80
2019-04-23T09:58:11.910Z,25.00
2019-04-23T10:00:54.574Z,24.90
2019-04-23T10:03:04.831Z,24.80
2019-04-23T10:05:31.364Z,24.60
2019-04-23T10:08:04.206Z,24.20
2019-04-23T10:10:23.066Z,24.20
2019-04-23T10:12:53.652Z,24.10
2019-04-23T10:15:29.033Z,24.10
2019-04-23T10:17:54.271Z,23.90
2019-04-23T10:20:24.814Z,23.80
2019-04-23T10:22:54.578Z,23.80
2019-04-23T10:25:23.742Z,23.60
2019-04-23T10:27:56.937Z,23.50
2019-04-23T10:30:23.776Z,23.30
2019-04-23T10:32:53.633Z,23.50
2019-04-23T10:35:35.122Z,23.50
2019-04-23T10:38:02.109Z,23.50
2019-04-23T10:40:30.218Z,23.60
2019-04-23T10:42:56.483Z,23.60
2019-04-23T10:45:53.989Z,23.60
2019-04-23T10:49:22.528Z,23.60
2019-04-23T10:51:40.979Z,23.60
2019-04-23T10:54:24.576Z,23.60
2019-04-23T10:59:34.929Z,23.70
2019-04-23T11:02:24.448Z,23.90
2019-04-23T11:12:37.615Z,24.40
2019-04-23T11:15:27.032Z,24.50
2019-04-23T11:17:47.579Z,24.40
2019-04-23T11:20:25.346Z,24.30
2019-04-23T11:22:54.939Z,24.20
2019-04-23T11:28:11.051Z,24.30
2019-04-23T11:30:32.540Z,24.40
2019-04-23T11:33:15.734Z,24.60
2019-04-23T11:38:22.100Z,24.70
2019-04-23T11:43:20.510Z,24.70
2019-04-23T11:45:43.039Z,24.70
2019-04-23T11:53:10.516Z,25.10
2019-04-23T11:58:13.744Z,25.20
2019-04-23T12:01:03.193Z,25.20
2019-04-23T12:03:24.453Z,25.20
2019-04-23T12:06:20.984Z,25.10
2019-04-23T12:09:22.245Z,25.00
2019-04-23T12:14:39.173Z,24.90
2019-04-23T12:17:13.380Z,24.90
2019-04-23T12:19:56.158Z,24.90
2019-04-23T12:27:13.730Z,25.00
2019-04-23T12:32:43.169Z,25.20
2019-04-23T12:35:06.621Z,25.20
2019-04-23T12:38:03.339Z,25.00
2019-04-23T12:40:19.922Z,24.90
2019-04-23T12:45:27.123Z,24.80
2019-04-23T12:47:58.289Z,24.90
2019-04-23T12:52:54.211Z,25.20
2019-04-23T12:55:30.251Z,25.40
2019-04-23T12:57:50.599Z,25.30
2019-04-23T13:00:27.117Z,25.50
2019-04-23T13:05:27.130Z,25.60
2019-04-23T13:13:11.379Z,26.00
2019-04-23T13:15:30.944Z,26.10
2019-04-23T13:20:33.549Z,26.00
2019-04-23T13:23:12.142Z,26.10
2019-04-23T13:26:05.807Z,26.10
2019-04-23T13:33:42.149Z,25.80
2019-04-23T13:38:38.293Z,25.50
2019-04-23T13:41:09.067Z,25.40
2019-04-23T13:48:24.880Z,25.50
2019-04-23T13:56:13.288Z,25.70
2019-04-23T14:01:18.615Z,25.80
2019-04-23T14:11:21.282Z,25.50
2019-04-23T14:16:33.079Z,25.20
2019-04-23T14:21:25.371Z,25.20
2019-04-23T14:24:03.466Z,25.20
2019-04-23T14:26:25.940Z,25.30
2019-04-23T14:28:44.954Z,25.40
2019-04-23T14:31:23.208Z,25.30
2019-04-23T14:34:01.355Z,25.40
2019-04-23T14:36:25.350Z,25.40
2019-04-23T14:38:57.111Z,25.50
2019-04-23T14:41:26.222Z,25.40
2019-04-23T14:44:08.169Z,25.40
2019-04-23T14:49:25.801Z,25.40
2019-04-23T14:51:42.655Z,25.50
2019-04-23T14:54:15.782Z,25.50
2019-04-23T14:56:47.784Z,25.50
2019-04-23T14:59:10.425Z,25.40
2019-04-23T15:01:51.264Z,25.40
2019-04-23T15:04:22.258Z,25.50
2019-04-23T15:07:00.885Z,25.40
2019-04-23T15:12:07.236Z,25.20
2019-04-23T15:14:23.200Z,25.20
2019-04-23T15:16:55.111Z,25.20
2019-04-23T15:19:36.882Z,25.20
2019-04-23T15:22:08.368Z,25.30
2019-04-23T15:24:43.732Z,25.40
2019-04-23T15:29:23.975Z,25.40
2019-04-23T15:32:09.927Z,25.40
2019-04-23T15:34:32.829Z,25.30
2019-04-23T15:44:53.804Z,25.20
2019-04-23T15:47:40.484Z,25.20
2019-04-23T15:49:51.806Z,25.20
2019-04-23T15:52:27.312Z,25.10
2019-04-23T15:57:41.808Z,25.10
2019-04-23T16:01:54.521Z,25.10
2019-04-23T16:04:24.118Z,25.00
2019-04-23T16:06:54.020Z,25.00
2019-04-23T16:09:54.130Z,25.00
2019-04-23T16:12:17.776Z,25.00
2019-04-23T16:15:06.493Z,25.00
2019-04-23T16:20:31.459Z,24.90
2019-04-23T16:22:51.278Z,24.90
2019-04-23T16:25:22.149Z,24.90
2019-04-23T16:28:04.084Z,24.90
2019-04-23T16:33:08.628Z,24.80
2019-04-23T16:38:53.065Z,24.80
2019-04-23T16:41:12.837Z,24.80
2019-04-23T16:43:40.912Z,24.80
2019-04-23T16:53:39.759Z,24.60
2019-04-23T16:56:18.531Z,24.60
2019-04-23T17:03:46.147Z,24.40
2019-04-23T17:06:15.846Z,24.40
2019-04-23T17:11:17.555Z,24.20
2019-04-23T17:13:50.415Z,24.10
2019-04-23T17:16:26.272Z,24.00
2019-04-23T17:18:56.238Z,24.00
2019-04-23T17:21:18.657Z,23.90
2019-04-23T17:24:14.511Z,23.90
2019-04-23T17:26:27.307Z,23.80
2019-04-23T17:29:02.667Z,23.80
2019-04-23T17:34:02.546Z,23.70
2019-04-23T17:36:34.818Z,23.60
2019-04-23T17:39:10.585Z,23.60
2019-04-23T17:47:10.233Z,23.40
2019-04-23T17:50:00.153Z,23.30
2019-04-23T17:52:14.773Z,23.30
2019-04-23T17:54:41.139Z,23.30
2019-04-23T17:57:23.847Z,23.20
2019-04-23T18:00:05.562Z,23.20
2019-04-23T18:02:51.630Z,23.10
2019-04-23T18:05:06.503Z,23.00
2019-04-23T18:07:44.014Z,23.00
2019-04-23T18:10:17.593Z,23.00
2019-04-23T18:12:46.846Z,22.90
2019-04-23T18:15:04.770Z,22.90
2019-04-23T18:20:16.811Z,22.80
2019-04-23T18:25:26.204Z,22.70
2019-04-23T18:28:30.062Z,22.70
2019-04-23T18:36:32.490Z,22.60
2019-04-23T18:39:12.108Z,22.50
2019-04-23T18:41:50.404Z,22.50
2019-04-23T18:44:27.770Z,22.50
2019-04-23T18:47:00.394Z,22.40
2019-04-23T18:49:42.861Z,22.40
2019-04-23T18:52:20.907Z,22.40
2019-04-23T18:54:40.504Z,22.40
2019-04-23T18:57:46.949Z,22.30
2019-04-23T19:00:16.815Z,22.30
2019-04-23T19:03:11.039Z,22.30
2019-04-23T19:10:07.586Z,22.30
2019-04-23T19:12:36.359Z,22.20
2019-04-23T19:15:35.369Z,22.20
2019-04-23T19:24:59.622Z,22.20
2019-04-23T19:27:40.491Z,22.10
2019-04-23T19:33:36.473Z,22.00
2019-04-23T19:36:17.284Z,22.00
2019-04-23T19:38:55.824Z,21.90
2019-04-23T19:41:52.485Z,21.90
2019-04-23T19:44:32.775Z,21.80
2019-04-23T19:48:05.620Z,21.80
2019-04-23T20:01:03.762Z,21.60
2019-04-23T20:12:25.917Z,21.70
2019-04-23T20:14:52.060Z,21.70
2019-04-23T20:22:33.914Z,21.60
2019-04-23T20:31:42.274Z,21.60
2019-04-23T20:33:27.903Z,21.60
2019-04-23T20:38:18.747Z,21.60
2019-04-23T20:40:30.468Z,21.60
2019-04-23T20:42:57.226Z,21.60
2019-04-23T20:45:30.357Z,21.50
2019-04-23T20:47:56.250Z,21.50
2019-04-23T20:50:33.786Z,21.40
2019-04-23T20:52:57.562Z,21.40
2019-04-23T20:55:54.567Z,21.40
2019-04-23T21:01:09.602Z,21.30
2019-04-23T21:03:52.432Z,21.30
2019-04-23T21:06:07.059Z,21.30
2019-04-23T21:08:52.077Z,21.20
2019-04-23T21:10:58.303Z,21.20
2019-04-23T21:13:50.705Z,21.20
2019-04-23T21:16:08.978Z,21.10
2019-04-23T21:18:51.423Z,21.10
2019-04-23T21:21:08.203Z,21.10
2019-04-23T21:23:37.401Z,21.10
2019-04-23T21:26:08.398Z,21.10
2019-04-23T21:28:49.167Z,21.00
2019-04-23T21:31:19.040Z,21.00
2019-04-23T21:34:04.454Z,21.00
2019-04-23T21:36:44.401Z,20.90
2019-04-23T21:39:59.525Z,20.90
2019-04-23T21:42:32.717Z,20.90
2019-04-23T21:44:52.880Z,20.80
2019-04-23T21:47:27.033Z,20.80
2019-04-23T21:50:11.823Z,20.80
2019-04-23T21:52:25.763Z,20.80
2019-04-23T21:55:07.376Z,20.80
2019-04-23T21:57:37.471Z,20.80
2019-04-23T22:00:02.467Z,20.70
2019-04-23T22:02:36.430Z,20.80
2019-04-23T22:05:12.693Z,20.70
2019-04-23T22:07:44.513Z,20.70
2019-04-23T22:12:48.784Z,20.70
2019-04-23T22:15:04.644Z,20.70
2019-04-23T22:17:39.282Z,20.70
2019-04-23T22:20:20.349Z,20.70
2019-04-23T22:25:08.565Z,20.60
2019-04-23T22:27:44.104Z,20.60
2019-04-23T22:30:16.662Z,20.60
2019-04-23T22:32:55.772Z,20.50
2019-04-23T22:35:10.506Z,20.50
2019-04-23T22:37:58.663Z,20.50
2019-04-23T22:40:11.479Z,20.50
2019-04-23T22:45:16.226Z,20.50
2019-04-23T22:50:20.612Z,20.50
2019-04-23T22:52:53.752Z,20.50
2019-04-23T22:55:47.184Z,20.50
2019-04-23T23:00:19.137Z,20.50
2019-04-23T23:03:06.508Z,20.50
2019-04-23T23:05:56.418Z,20.50
2019-04-23T23:08:13.367Z,20.50
2019-04-23T23:15:53.230Z,20.50
2019-04-23T23:18:19.685Z,20.50
2019-04-23T23:20:55.872Z,20.60
2019-04-23T23:23:21.331Z,20.60
2019-04-23T23:25:51.179Z,20.60
2019-04-23T23:31:07.031Z,20.60
2019-04-23T23:33:23.076Z,20.60
2019-04-23T23:35:58.841Z,20.60
2019-04-23T23:41:05.716Z,20.60
2019-04-23T23:43:29.956Z,20.60
2019-04-23T23:46:10.465Z,20.60
2019-04-23T23:48:29.156Z,20.60
2019-04-23T23:53:46.867Z,20.50
2019-04-23T23:56:11.323Z,20.50
2019-04-23T23:58:40.683Z,20.50
